createdAt,value
2022-09-10T00:01:23.658Z,22.15
2022-09-10T00:03:53.731Z,22.00
2022-09-10T00:06:26.187Z,21.92
2022-09-10T00:08:56.223Z,22.30
2022-09-10T00:11:24.852Z,22.00
2022-09-10T00:13:55.566Z,22.48
2022-09-10T00:16:23.525Z,22.13
2022-09-10T00:18:51.688Z,22.30
2022-09-10T00:21:22.007Z,22.05
2022-09-10T00:23:50.938Z,21.95
2022-09-10T00:26:25.616Z,22.20
2022-09-10T00:28:58.443Z,22.40
2022-09-10T00:31:26.742Z,21.50
2022-09-10T00:33:55.423Z,21.88
2022-09-10T00:36:25.562Z,22.13
2022-09-10T00:38:55.918Z,21.40
2022-09-10T00:41:27.705Z,22.30
2022-09-10T00:43:58.541Z,22.60
2022-09-10T00:46:37.181Z,23.55
2022-09-10T00:49:11.468Z,22.85
2022-09-10T00:51:40.512Z,24.42
2022-09-10T00:54:09.398Z,23.75
2022-09-10T00:56:39.125Z,23.73
2022-09-10T00:59:10.538Z,23.90
2022-09-10T01:01:40.460Z,24.25
2022-09-10T01:04:10.709Z,24.52
2022-09-10T01:06:40.293Z,22.85
2022-09-10T01:09:09.184Z,23.30
2022-09-10T01:11:53.022Z,24.20
2022-09-10T01:14:38.528Z,23.88
2022-09-10T01:17:15.485Z,23.20
2022-09-10T01:20:17.114Z,23.58
2022-09-10T01:23:01.229Z,22.92
2022-09-10T01:25:41.472Z,23.20
2022-09-10T01:28:16.350Z,22.13
2022-09-10T01:30:50.104Z,22.30
2022-09-10T01:33:23.860Z,21.52
2022-09-10T01:35:54.492Z,21.13
2022-09-10T01:38:26.456Z,21.08
2022-09-10T01:40:56.182Z,20.80
2022-09-10T01:43:25.863Z,20.33
2022-09-10T01:46:08.524Z,20.50
2022-09-10T01:48:54.129Z,20.20
2022-09-10T01:51:29.939Z,20.38
2022-09-10T01:54:18.010Z,19.33
2022-09-10T01:56:54.228Z,20.00
2022-09-10T01:59:34.430Z,20.00
2022-09-10T02:02:09.067Z,19.70
2022-09-10T02:04:38.044Z,20.50
2022-09-10T02:07:08.194Z,20.33
2022-09-10T02:09:36.302Z,20.83
2022-09-10T02:12:04.665Z,21.00
2022-09-10T02:14:34.211Z,22.58
2022-09-10T02:17:02.898Z,22.27
2022-09-10T02:19:30.929Z,21.33
2022-09-10T02:22:00.965Z,22.33
2022-09-10T02:24:28.963Z,21.52
2022-09-10T02:26:56.907Z,21.60
2022-09-10T02:29:25.071Z,22.10
2022-09-10T02:31:54.502Z,22.38
2022-09-10T02:34:23.145Z,22.65
2022-09-10T02:36:51.111Z,21.23
2022-09-10T02:39:19.208Z,21.55
2022-09-10T02:41:48.190Z,22.20
2022-09-10T02:44:16.246Z,21.33
2022-09-10T02:46:44.235Z,21.00
2022-09-10T02:49:13.638Z,21.00
2022-09-10T02:51:42.404Z,21.08
2022-09-10T02:54:10.548Z,21.48
2022-09-10T02:56:38.597Z,21.30
2022-09-10T02:59:06.541Z,21.80
2022-09-10T03:01:35.154Z,21.98
2022-09-10T03:04:03.505Z,21.85
2022-09-10T03:06:33.006Z,20.75
2022-09-10T03:09:02.136Z,22.00
2022-09-10T03:11:31.740Z,21.67
2022-09-10T03:13:59.915Z,22.65
2022-09-10T03:16:28.002Z,21.58
2022-09-10T03:18:56.024Z,21.58
2022-09-10T03:21:25.814Z,20.55
2022-09-10T03:23:56.886Z,21.40
2022-09-10T03:26:26.306Z,20.35
2022-09-10T03:28:54.316Z,20.55
2022-09-10T03:31:22.789Z,21.20
2022-09-10T03:33:51.197Z,22.58
2022-09-10T03:36:20.828Z,23.27
2022-09-10T03:38:48.927Z,23.67
2022-09-10T03:41:18.395Z,24.13
2022-09-10T03:43:46.333Z,23.45
2022-09-10T03:46:14.495Z,22.83
2022-09-10T03:48:43.482Z,22.75
2022-09-10T03:51:11.787Z,22.20
2022-09-10T03:53:40.880Z,22.15
2022-09-10T03:56:09.202Z,21.65
2022-09-10T03:58:39.207Z,21.23
2022-09-10T04:01:08.115Z,21.65
2022-09-10T04:03:36.108Z,21.38
2022-09-10T04:06:04.183Z,21.55
2022-09-10T04:08:32.281Z,21.48
2022-09-10T04:11:03.246Z,21.77
2022-09-10T04:13:32.997Z,21.42
2022-09-10T04:16:02.709Z,20.83
2022-09-10T04:18:33.609Z,22.38
2022-09-10T04:21:02.187Z,21.02
2022-09-10T04:23:30.546Z,21.60
2022-09-10T04:25:58.502Z,21.58
2022-09-10T04:28:26.770Z,21.98
2022-09-10T04:30:54.926Z,23.27
2022-09-10T04:33:26.684Z,21.95
2022-09-10T04:35:55.188Z,22.38
2022-09-10T04:38:23.210Z,22.80
2022-09-10T04:40:51.201Z,22.80
2022-09-10T04:43:19.187Z,22.73
2022-09-10T04:45:47.202Z,22.48
2022-09-10T04:48:15.627Z,21.77
2022-09-10T04:51:05.445Z,22.58
2022-09-10T04:53:34.461Z,22.35
2022-09-10T04:56:02.798Z,21.48
2022-09-10T04:58:34.233Z,21.42
2022-09-10T05:01:06.079Z,23.08
2022-09-10T05:03:34.099Z,21.42
2022-09-10T05:06:03.532Z,21.40
2022-09-10T05:08:31.670Z,21.55
2022-09-10T05:11:01.182Z,21.15
2022-09-10T05:13:31.357Z,21.05
2022-09-10T05:15:59.829Z,21.05
2022-09-10T05:18:28.209Z,19.65
2022-09-10T05:20:56.201Z,18.63
2022-09-10T05:23:25.680Z,19.80
2022-09-10T05:25:53.997Z,19.70
2022-09-10T05:28:22.651Z,19.58
2022-09-10T05:30:51.877Z,20.38
2022-09-10T05:33:20.020Z,20.48
2022-09-10T05:35:51.536Z,20.83
2022-09-10T05:38:20.201Z,21.10
2022-09-10T05:40:50.380Z,20.80
2022-09-10T05:43:18.395Z,20.67
2022-09-10T05:45:47.216Z,20.75
2022-09-10T05:48:15.411Z,20.58
2022-09-10T05:50:45.537Z,19.83
2022-09-10T05:53:13.504Z,20.85
2022-09-10T05:55:41.502Z,21.05
2022-09-10T05:58:11.086Z,20.30
2022-09-10T06:00:39.065Z,21.17
2022-09-10T06:03:07.833Z,20.95
2022-09-10T06:05:35.966Z,19.63
2022-09-10T06:08:08.516Z,19.55
2022-09-10T06:10:37.337Z,21.15
2022-09-10T06:13:06.848Z,20.45
2022-09-10T06:15:37.953Z,21.63
2022-09-10T06:18:06.056Z,20.80
2022-09-10T06:20:34.385Z,20.52
2022-09-10T06:23:02.340Z,20.75
2022-09-10T06:25:31.185Z,20.88
2022-09-10T06:27:59.192Z,19.73
2022-09-10T06:30:27.432Z,19.90
2022-09-10T06:32:57.629Z,19.95
2022-09-10T06:35:27.217Z,19.27
2022-09-10T06:37:55.981Z,20.27
2022-09-10T06:40:27.820Z,20.13
2022-09-10T06:42:56.258Z,20.17
2022-09-10T06:45:24.236Z,21.30
2022-09-10T06:48:37.332Z,19.67
2022-09-10T06:50:51.225Z,19.88
2022-09-10T06:53:21.421Z,18.50
2022-09-10T06:55:50.638Z,18.15
2022-09-10T06:58:19.845Z,17.13
2022-09-10T07:00:48.080Z,16.98
2022-09-10T07:03:19.376Z,16.58
2022-09-10T07:05:49.037Z,16.90
2022-09-10T07:08:18.305Z,17.05
2022-09-10T07:10:47.345Z,15.82
2022-09-10T07:13:15.546Z,16.00
2022-09-10T07:15:47.517Z,16.65
2022-09-10T07:18:15.934Z,16.15
2022-09-10T07:20:44.440Z,16.90
2022-09-10T07:23:14.873Z,17.95
2022-09-10T07:25:43.484Z,18.08
2022-09-10T07:28:15.841Z,17.88
2022-09-10T07:30:45.481Z,18.13
2022-09-10T07:33:13.478Z,17.63
2022-09-10T07:35:41.866Z,16.25
2022-09-10T07:38:16.942Z,14.75
2022-09-10T07:40:44.885Z,14.20
2022-09-10T07:43:13.350Z,14.68
2022-09-10T07:45:41.699Z,14.85
2022-09-10T07:48:11.932Z,15.15
2022-09-10T07:50:39.953Z,17.40
2022-09-10T07:53:07.946Z,18.35
2022-09-10T07:55:37.332Z,19.77
2022-09-10T07:58:05.335Z,23.52
2022-09-10T08:00:33.508Z,30.27
2022-09-10T08:03:01.595Z,29.65
2022-09-10T08:05:29.858Z,32.80
2022-09-10T08:07:58.621Z,30.70
2022-09-10T08:10:26.801Z,31.98
2022-09-10T08:12:57.857Z,30.38
2022-09-10T08:15:25.831Z,31.05
2022-09-10T08:17:53.855Z,33.33
2022-09-10T08:20:22.478Z,32.03
2022-09-10T08:22:51.084Z,31.95
2022-09-10T08:25:20.207Z,30.50
2022-09-10T08:27:48.383Z,29.02
2022-09-10T08:30:17.968Z,28.75
2022-09-10T08:32:45.997Z,28.02
2022-09-10T08:35:14.608Z,25.45
2022-09-10T08:37:42.770Z,24.35
2022-09-10T08:40:13.441Z,24.55
2022-09-10T08:42:45.034Z,24.23
2022-09-10T08:45:17.556Z,24.80
2022-09-10T08:47:55.534Z,23.48
2022-09-10T08:50:30.248Z,23.55
2022-09-10T08:53:04.859Z,24.42
2022-09-10T08:55:35.349Z,22.85
2022-09-10T08:58:13.846Z,23.33
2022-09-10T09:00:45.708Z,24.00
2022-09-10T09:03:21.630Z,24.67
2022-09-10T09:05:53.745Z,24.70
2022-09-10T09:08:25.914Z,25.58
2022-09-10T09:11:00.628Z,24.25
2022-09-10T09:13:40.492Z,26.05
2022-09-10T09:16:26.364Z,25.63
2022-09-10T09:19:07.439Z,24.70
2022-09-10T09:21:48.919Z,21.40
2022-09-10T09:24:24.245Z,21.05
2022-09-10T09:26:57.889Z,21.15
2022-09-10T09:29:31.376Z,21.70
2022-09-10T09:32:08.825Z,16.40
2022-09-10T09:34:42.147Z,16.90
2022-09-10T09:37:18.548Z,14.18
2022-09-10T09:39:54.557Z,15.65
2022-09-10T09:42:32.808Z,16.25
2022-09-10T09:45:10.660Z,17.42
2022-09-10T09:47:41.309Z,18.75
2022-09-10T09:50:13.390Z,19.35
2022-09-10T09:52:45.560Z,19.05
2022-09-10T09:55:27.323Z,18.13
2022-09-10T09:58:33.670Z,16.30
2022-09-10T10:01:21.163Z,12.45
2022-09-10T10:03:54.519Z,15.05
2022-09-10T10:06:25.808Z,16.10
2022-09-10T10:09:02.168Z,17.05
2022-09-10T10:11:50.265Z,17.50
2022-09-10T10:14:38.171Z,17.13
2022-09-10T10:17:34.967Z,16.58
2022-09-10T10:20:16.274Z,15.63
2022-09-10T10:22:45.466Z,16.88
2022-09-10T10:25:41.613Z,16.58
2022-09-10T10:28:22.102Z,21.85
2022-09-10T10:30:53.628Z,20.73
2022-09-10T10:33:29.559Z,18.35
2022-09-10T10:36:06.740Z,17.95
2022-09-10T10:38:36.709Z,20.58
2022-09-10T10:41:32.319Z,22.13
2022-09-10T10:44:24.346Z,21.52
2022-09-10T10:47:02.795Z,20.08
2022-09-10T10:49:50.125Z,22.55
2022-09-10T10:52:26.608Z,21.38
2022-09-10T10:55:08.248Z,19.50
2022-09-10T10:58:01.657Z,17.75
2022-09-10T11:00:33.715Z,18.33
2022-09-10T11:03:06.902Z,17.63
2022-09-10T11:05:38.868Z,18.75
2022-09-10T11:08:15.156Z,19.90
2022-09-10T11:10:47.564Z,22.15
2022-09-10T11:13:22.216Z,20.00
2022-09-10T11:15:59.374Z,19.92
2022-09-10T11:18:33.943Z,17.95
2022-09-10T11:21:08.535Z,19.25
2022-09-10T11:23:45.229Z,19.08
2022-09-10T11:26:17.143Z,17.30
2022-09-10T11:28:55.350Z,19.23
2022-09-10T11:31:33.789Z,18.17
2022-09-10T11:34:06.944Z,18.42
2022-09-10T11:36:42.064Z,17.15
2022-09-10T11:39:20.442Z,20.27
2022-09-10T11:41:52.609Z,16.00
2022-09-10T11:44:38.570Z,13.55
2022-09-10T11:47:15.421Z,13.10
2022-09-10T11:49:49.670Z,10.82
2022-09-10T11:52:21.631Z,10.80
2022-09-10T11:54:51.613Z,8.68
2022-09-10T11:57:33.855Z,9.80
2022-09-10T12:00:10.007Z,10.00
2022-09-10T12:03:06.603Z,11.40
2022-09-10T12:05:48.192Z,7.35
2022-09-10T12:08:23.857Z,9.57
2022-09-10T12:11:05.370Z,11.40
2022-09-10T12:13:37.156Z,9.90
2022-09-10T12:16:15.982Z,10.70
2022-09-10T12:18:47.000Z,12.23
2022-09-10T12:21:27.936Z,11.38
2022-09-10T12:23:57.032Z,10.82
2022-09-10T12:26:29.680Z,11.73
2022-09-10T12:29:06.756Z,10.52
2022-09-10T12:32:20.370Z,11.18
2022-09-10T12:34:50.841Z,10.45
2022-09-10T12:37:28.033Z,8.88
2022-09-10T12:40:33.420Z,8.60
2022-09-10T12:43:41.921Z,8.00
2022-09-10T12:46:20.120Z,8.30
2022-09-10T12:48:50.875Z,8.30
2022-09-10T12:51:30.968Z,8.07
2022-09-10T12:54:16.885Z,9.32
2022-09-10T12:57:14.677Z,9.60
2022-09-10T13:00:18.283Z,7.88
2022-09-10T13:02:53.452Z,8.15
2022-09-10T13:05:40.537Z,10.38
2022-09-10T13:08:14.293Z,11.50
2022-09-10T13:10:44.217Z,9.45
2022-09-10T13:13:35.899Z,9.20
2022-09-10T13:16:07.433Z,7.85
2022-09-10T13:18:36.843Z,6.63
2022-09-10T13:21:38.475Z,8.85
2022-09-10T13:24:39.420Z,6.50
2022-09-10T13:27:22.616Z,5.72
2022-09-10T13:29:54.604Z,7.53
2022-09-10T13:32:30.632Z,4.60
2022-09-10T13:35:26.376Z,5.20
2022-09-10T13:38:25.620Z,4.57
2022-09-10T13:41:19.077Z,4.93
2022-09-10T13:44:01.442Z,2.80
2022-09-10T13:46:36.490Z,2.60
2022-09-10T13:49:15.767Z,3.03
2022-09-10T13:51:52.167Z,2.70
2022-09-10T13:54:33.280Z,2.88
2022-09-10T13:57:09.434Z,2.72
2022-09-10T13:59:40.932Z,3.20
2022-09-10T14:02:09.005Z,4.10
2022-09-10T14:04:44.247Z,3.80
2022-09-10T14:07:20.590Z,3.85
2022-09-10T14:09:51.472Z,3.60
2022-09-10T14:12:23.351Z,3.00
2022-09-10T14:14:55.358Z,3.38
2022-09-10T14:17:27.443Z,4.38
2022-09-10T14:20:01.478Z,2.75
2022-09-10T14:22:31.891Z,3.03
2022-09-10T14:25:04.136Z,2.78
2022-09-10T14:27:34.839Z,3.45
2022-09-10T14:30:23.085Z,3.33
2022-09-10T14:32:51.901Z,3.40
2022-09-10T14:35:43.137Z,3.22
2022-09-10T14:38:24.379Z,3.33
2022-09-10T14:40:58.452Z,3.00
2022-09-10T14:43:31.880Z,2.95
2022-09-10T14:46:00.629Z,3.40
2022-09-10T14:48:32.454Z,2.80
2022-09-10T14:51:19.281Z,2.90
2022-09-10T14:53:51.710Z,3.33
2022-09-10T14:56:33.002Z,2.85
2022-09-10T14:59:03.339Z,2.45
2022-09-10T15:01:35.540Z,2.83
2022-09-10T15:04:04.363Z,2.85
2022-09-10T15:06:33.774Z,2.95
2022-09-10T15:09:01.725Z,2.35
2022-09-10T15:11:30.138Z,2.88
2022-09-10T15:13:59.346Z,2.55
2022-09-10T15:16:28.078Z,3.33
2022-09-10T15:18:58.369Z,2.88
2022-09-10T15:21:27.458Z,2.70
2022-09-10T15:23:56.863Z,2.72
2022-09-10T15:26:25.498Z,3.58
2022-09-10T15:28:53.887Z,2.80
2022-09-10T15:31:23.323Z,2.78
2022-09-10T15:33:52.913Z,2.63
2022-09-10T15:36:22.430Z,2.63
2022-09-10T15:38:52.529Z,2.38
2022-09-10T15:41:22.709Z,2.72
2022-09-10T15:43:50.730Z,3.08
2022-09-10T15:46:20.153Z,3.08
2022-09-10T15:48:49.809Z,3.17
2022-09-10T15:51:21.305Z,3.10
2022-09-10T15:53:50.367Z,3.05
2022-09-10T15:56:19.374Z,2.80
2022-09-10T15:58:51.799Z,2.85
2022-09-10T16:01:20.321Z,3.13
2022-09-10T16:03:50.820Z,3.30
2022-09-10T16:06:20.688Z,2.83
2022-09-10T16:08:50.661Z,2.70
2022-09-10T16:11:21.791Z,3.30
2022-09-10T16:13:51.792Z,3.40
2022-09-10T16:16:21.907Z,2.95
2022-09-10T16:18:51.599Z,3.50
2022-09-10T16:21:22.426Z,3.45
2022-09-10T16:23:54.979Z,3.33
2022-09-10T16:26:24.839Z,3.20
2022-09-10T16:28:55.840Z,3.17
2022-09-10T16:31:25.836Z,3.33
2022-09-10T16:33:55.385Z,3.40
2022-09-10T16:36:26.180Z,3.45
2022-09-10T16:38:55.567Z,3.40
2022-09-10T16:41:25.276Z,3.55
2022-09-10T16:43:56.713Z,3.47
2022-09-10T16:46:26.789Z,3.80
2022-09-10T16:48:56.321Z,3.40
2022-09-10T16:51:26.303Z,3.42
2022-09-10T16:53:56.908Z,3.08
2022-09-10T16:56:26.714Z,3.17
2022-09-10T16:58:56.304Z,2.70
2022-09-10T17:01:24.320Z,2.90
2022-09-10T17:03:52.652Z,3.03
2022-09-10T17:06:23.197Z,3.10
2022-09-10T17:08:51.687Z,3.90
2022-09-10T17:11:20.725Z,3.47
2022-09-10T17:13:48.841Z,3.30
2022-09-10T17:16:25.723Z,3.47
2022-09-10T17:18:58.839Z,3.47
2022-09-10T17:21:27.146Z,3.33
2022-09-10T17:23:55.375Z,4.00
2022-09-10T17:26:24.215Z,4.60
2022-09-10T17:28:54.894Z,4.32
2022-09-10T17:31:25.035Z,5.38
2022-09-10T17:33:53.303Z,6.38
2022-09-10T17:36:22.091Z,7.38
2022-09-10T17:38:50.439Z,7.35
2022-09-10T17:41:18.591Z,8.70
2022-09-10T17:43:47.103Z,9.43
2022-09-10T17:46:18.227Z,11.75
2022-09-10T17:48:48.419Z,12.15
2022-09-10T17:51:18.540Z,12.20
2022-09-10T17:53:47.126Z,12.60
2022-09-10T17:56:17.258Z,13.30
2022-09-10T17:58:45.359Z,12.65
2022-09-10T18:01:22.541Z,15.85
2022-09-10T18:03:53.043Z,16.88
2022-09-10T18:06:22.519Z,17.05
2022-09-10T18:08:50.975Z,16.83
2022-09-10T18:11:21.673Z,16.95
2022-09-10T18:13:52.396Z,16.83
2022-09-10T18:16:23.795Z,14.80
2022-09-10T18:18:55.889Z,17.30
2022-09-10T18:21:27.098Z,15.82
2022-09-10T18:23:57.127Z,17.33
2022-09-10T18:26:26.805Z,18.23
2022-09-10T18:28:58.542Z,18.95
2022-09-10T18:31:29.256Z,19.50
2022-09-10T18:33:59.373Z,20.40
2022-09-10T18:36:28.836Z,20.70
2022-09-10T18:38:57.241Z,21.38
2022-09-10T18:41:27.623Z,20.73
2022-09-10T18:43:59.083Z,20.88
2022-09-10T18:46:28.993Z,20.25
2022-09-10T18:49:07.675Z,21.38
2022-09-10T18:51:40.934Z,20.92
2022-09-10T18:54:14.106Z,22.20
2022-09-10T18:56:44.788Z,23.38
2022-09-10T18:59:15.327Z,22.40
2022-09-10T19:01:45.712Z,21.23
2022-09-10T19:04:16.574Z,22.17
2022-09-10T19:06:46.776Z,21.98
2022-09-10T19:09:16.540Z,23.48
2022-09-10T19:11:46.439Z,22.90
2022-09-10T19:14:18.087Z,23.33
2022-09-10T19:16:47.995Z,22.67
2022-09-10T19:19:22.219Z,23.98
2022-09-10T19:21:55.481Z,23.58
2022-09-10T19:24:51.140Z,24.13
2022-09-10T19:27:17.241Z,23.95
2022-09-10T19:29:47.385Z,25.90
2022-09-10T19:32:17.189Z,25.48
2022-09-10T19:34:50.044Z,24.65
2022-09-10T19:37:19.587Z,25.35
2022-09-10T19:39:47.826Z,26.38
2022-09-10T19:42:16.384Z,27.00
2022-09-10T19:44:44.574Z,27.40
2022-09-10T19:47:13.010Z,27.30
2022-09-10T19:49:41.121Z,28.00
2022-09-10T19:52:11.023Z,28.25
2022-09-10T19:54:39.136Z,28.02
2022-09-10T19:57:07.072Z,27.92
2022-09-10T19:59:35.575Z,27.98
2022-09-10T20:02:03.777Z,28.23
2022-09-10T20:04:33.125Z,29.25
2022-09-10T20:07:01.265Z,26.88
2022-09-10T20:09:30.756Z,30.17
2022-09-10T20:11:58.758Z,28.98
2022-09-10T20:14:28.437Z,30.30
2022-09-10T20:16:56.940Z,31.95
2022-09-10T20:19:24.821Z,30.65
2022-09-10T20:21:53.409Z,29.88
2022-09-10T20:24:22.205Z,29.83
2022-09-10T20:26:51.718Z,30.42
2022-09-10T20:29:20.465Z,29.35
2022-09-10T20:31:49.397Z,30.08
2022-09-10T20:34:19.493Z,29.88
2022-09-10T20:36:48.203Z,28.98
2022-09-10T20:39:18.113Z,29.63
2022-09-10T20:41:46.702Z,30.75
2022-09-10T20:44:17.530Z,28.92
2022-09-10T20:46:45.605Z,28.48
2022-09-10T20:49:16.292Z,28.05
2022-09-10T20:51:45.231Z,28.65
2022-09-10T20:54:15.033Z,32.58
2022-09-10T20:56:43.501Z,29.42
2022-09-10T20:59:14.618Z,30.60
2022-09-10T21:01:46.041Z,29.60
2022-09-10T21:04:14.624Z,31.20
2022-09-10T21:06:42.804Z,31.55
2022-09-10T21:09:11.375Z,30.23
2022-09-10T21:11:39.623Z,27.88
2022-09-10T21:14:09.206Z,31.10
2022-09-10T21:16:38.365Z,28.20
2022-09-10T21:19:09.057Z,29.63
2022-09-10T21:21:39.459Z,31.17
2022-09-10T21:24:09.599Z,29.50
2022-09-10T21:26:39.908Z,29.70
2022-09-10T21:29:11.459Z,28.55
2022-09-10T21:31:39.937Z,28.63
2022-09-10T21:34:09.578Z,29.40
2022-09-10T21:36:39.091Z,31.13
2022-09-10T21:39:09.851Z,30.38
2022-09-10T21:41:39.855Z,32.67
2022-09-10T21:44:12.128Z,31.25
2022-09-10T21:46:40.872Z,32.25
2022-09-10T21:49:10.487Z,29.70
2022-09-10T21:51:39.032Z,31.05
2022-09-10T21:54:07.563Z,31.23
2022-09-10T21:56:35.465Z,32.42
2022-09-10T21:59:03.357Z,31.02
2022-09-10T22:01:33.002Z,31.65
2022-09-10T22:04:02.134Z,34.03
2022-09-10T22:06:32.856Z,31.90
2022-09-10T22:09:02.632Z,32.15
2022-09-10T22:11:33.185Z,31.70
2022-09-10T22:14:03.658Z,30.40
2022-09-10T22:16:33.228Z,31.63
2022-09-10T22:19:03.434Z,33.65
2022-09-10T22:21:32.770Z,34.60
2022-09-10T22:24:00.993Z,34.08
2022-09-10T22:26:29.543Z,33.13
2022-09-10T22:29:00.411Z,32.45
2022-09-10T22:31:31.390Z,31.80
2022-09-10T22:34:01.549Z,32.67
2022-09-10T22:36:34.051Z,33.65
2022-09-10T22:39:04.137Z,31.98
2022-09-10T22:41:34.383Z,31.65
2022-09-10T22:44:02.763Z,32.30
2022-09-10T22:46:31.509Z,35.17
2022-09-10T22:49:00.182Z,34.55
2022-09-10T22:51:30.461Z,32.92
2022-09-10T22:53:59.826Z,34.33
2022-09-10T22:56:29.898Z,34.45
2022-09-10T22:58:59.828Z,34.10
2022-09-10T23:01:29.845Z,34.03
2022-09-10T23:03:59.257Z,34.85
2022-09-10T23:06:28.720Z,37.22
2022-09-10T23:09:02.779Z,35.08
2022-09-10T23:11:32.180Z,36.40
2022-09-10T23:14:02.126Z,35.40
2022-09-10T23:16:32.289Z,34.38
2022-09-10T23:19:03.772Z,32.90
2022-09-10T23:21:33.664Z,31.50
2022-09-10T23:24:05.228Z,34.55
2022-09-10T23:26:33.355Z,35.75
2022-09-10T23:29:04.178Z,36.00
2022-09-10T23:31:33.986Z,34.30
2022-09-10T23:34:03.548Z,35.35
2022-09-10T23:36:33.692Z,35.10
2022-09-10T23:39:07.532Z,36.80
2022-09-10T23:41:36.066Z,33.55
2022-09-10T23:44:04.358Z,33.75
2022-09-10T23:46:33.014Z,32.75
2022-09-10T23:49:01.991Z,33.03
2022-09-10T23:51:31.215Z,32.97
2022-09-10T23:53:59.517Z,32.25
2022-09-10T23:56:29.200Z,32.60
2022-09-10T23:58:59.258Z,32.83
